Time;durP1;ratioP1;P1;durP2;ratioP2;P2;SDS_P1;SDS_P2;PMS_P1;PMS_P2;Temp;Humidity;BMP_temperature;BMP_pressure;BME280_temperature;BME280_humidity;BME280_pressure;Samples;Min_cycle;Max_cycle;Signal;HPM_P1;HPM_P2
2022/07/27 00:00:48;;;;;;;4.05;1.27;;;19.00;99.30;;;;;;4096012;28;20065;-66
2022/07/27 00:02:49;;;;;;;3.22;0.98;;;19.00;99.90;;;;;;4096664;28;20043;-66
2022/07/27 00:04:50;;;;;;;2.60;0.73;;;18.90;99.90;;;;;;4093313;28;20190;-66
2022/07/27 00:06:50;;;;;;;6.07;1.45;;;18.90;99.90;;;;;;4096299;28;20101;-66
2022/07/27 00:08:51;;;;;;;2.53;1.02;;;18.90;99.90;;;;;;4097195;28;20031;-66
2022/07/27 00:10:52;;;;;;;3.55;1.30;;;18.80;99.90;;;;;;4095256;28;20380;-66
2022/07/27 00:12:52;;;;;;;3.55;1.00;;;18.70;99.90;;;;;;4097484;28;20472;-66
2022/07/27 00:14:53;;;;;;;1.55;0.77;;;18.70;99.90;;;;;;4097319;28;20019;-66
2022/07/27 00:16:53;;;;;;;1.95;1.10;;;18.70;99.90;;;;;;4096213;28;20066;-66
2022/07/27 00:18:54;;;;;;;3.35;1.23;;;18.60;99.80;;;;;;4095328;28;20035;-66
2022/07/27 00:20:55;;;;;;;2.03;0.95;;;18.60;99.90;;;;;;4094171;28;20034;-66
2022/07/27 00:22:57;;;;;;;2.20;0.80;;;18.60;99.90;;;;;;4096483;28;20054;-66
2022/07/27 00:24:57;;;;;;;4.00;1.13;;;18.60;99.90;;;;;;4095639;28;20031;-66
2022/07/27 00:26:58;;;;;;;3.45;0.93;;;18.60;99.80;;;;;;4092167;28;20039;-66
2022/07/27 00:28:58;;;;;;;2.85;1.10;;;18.60;99.90;;;;;;4096534;28;20531;-66
2022/07/27 00:30:59;;;;;;;2.95;1.10;;;18.60;99.90;;;;;;4095986;28;20482;-66
2022/07/27 00:32:59;;;;;;;1.55;1.02;;;18.50;99.90;;;;;;4092189;28;20483;-66
2022/07/27 00:35:00;;;;;;;2.53;1.10;;;18.50;99.90;;;;;;4097067;28;20476;-66
2022/07/27 00:37:01;;;;;;;3.28;1.05;;;18.50;99.90;;;;;;4095681;28;20050;-66
2022/07/27 00:39:01;;;;;;;2.83;1.10;;;18.50;99.90;;;;;;4096242;28;20471;-66
2022/07/27 00:41:02;;;;;;;1.40;0.95;;;18.40;99.90;;;;;;4092687;28;20475;-66
2022/07/27 00:46:27;;;;;;;1.20;0.82;;;18.40;99.90;;;;;;4093198;28;20398;-66
2022/07/27 00:48:28;;;;;;;2.90;1.10;;;18.30;99.90;;;;;;4095127;28;20502;-66
2022/07/27 00:50:29;;;;;;;2.20;1.17;;;18.40;99.90;;;;;;4094875;28;20035;-66
2022/07/27 00:52:30;;;;;;;2.00;0.90;;;18.30;99.90;;;;;;4097221;28;20101;-66
2022/07/27 00:54:30;;;;;;;1.98;1.23;;;18.30;99.90;;;;;;4097219;28;20034;-66
2022/07/27 00:56:31;;;;;;;2.10;0.90;;;18.30;99.90;;;;;;4094842;28;20391;-66
2022/07/27 00:58:32;;;;;;;2.70;1.30;;;18.30;99.90;;;;;;4096779;28;20036;-67
2022/07/27 01:00:35;;;;;;;1.85;1.10;;;18.20;99.90;;;;;;4094458;28;20122;-66
2022/07/27 01:02:36;;;;;;;2.80;1.05;;;18.20;99.90;;;;;;4096757;28;20036;-66
2022/07/27 01:04:37;;;;;;;2.33;0.90;;;18.20;99.90;;;;;;4096296;28;20035;-66
2022/07/27 01:06:37;;;;;;;3.20;1.15;;;18.20;99.90;;;;;;4096249;28;20526;-66
2022/07/27 01:08:38;;;;;;;2.72;1.23;;;18.20;99.90;;;;;;4095484;28;20034;-66
2022/07/27 01:10:40;;;;;;;1.88;0.95;;;18.20;99.90;;;;;;4094766;28;20071;-66
2022/07/27 01:12:43;;;;;;;2.13;1.13;;;18.20;99.90;;;;;;4095708;28;20383;-66
2022/07/27 01:14:44;;;;;;;1.13;1.00;;;18.10;99.90;;;;;;4096776;28;20043;-66
2022/07/27 01:16:45;;;;;;;3.00;1.30;;;18.10;99.90;;;;;;4095905;28;20094;-66
2022/07/27 01:18:45;;;;;;;2.03;1.08;;;18.10;99.90;;;;;;4095736;28;20491;-66
2022/07/27 01:20:46;;;;;;;3.33;1.10;;;18.10;99.90;;;;;;4094668;29;20038;-66
2022/07/27 01:22:46;;;;;;;1.55;1.00;;;18.10;99.90;;;;;;4095152;28;20484;-66
2022/07/27 01:24:49;;;;;;;3.00;1.20;;;18.10;99.90;;;;;;4096537;28;20028;-66
2022/07/27 01:26:50;;;;;;;1.92;1.05;;;18.10;99.90;;;;;;4095730;28;20497;-66
2022/07/27 01:28:59;;;;;;;3.00;1.20;;;18.10;99.90;;;;;;4095886;28;20125;-66
2022/07/27 01:30:59;;;;;;;2.42;1.33;;;18.00;99.90;;;;;;4094253;28;20069;-65
2022/07/27 01:33:05;;;;;;;3.28;1.33;;;18.00;99.90;;;;;;4096387;28;20379;-66
2022/07/27 01:35:06;;;;;;;1.58;0.93;;;18.00;99.90;;;;;;4095892;28;20094;-66
2022/07/27 01:37:07;;;;;;;2.17;0.93;;;18.00;99.90;;;;;;4095963;28;20510;-66
2022/07/27 01:39:08;;;;;;;2.88;1.02;;;18.00;99.90;;;;;;4095275;28;20035;-66
2022/07/27 01:41:09;;;;;;;3.38;1.40;;;18.00;99.90;;;;;;4095095;28;20070;-66
2022/07/27 01:43:09;;;;;;;4.95;1.73;;;18.00;99.90;;;;;;4096359;28;20387;-66
2022/07/27 01:45:10;;;;;;;2.67;1.15;;;18.00;99.90;;;;;;4087265;28;20368;-66
2022/07/27 01:47:16;;;;;;;3.47;1.35;;;17.90;99.90;;;;;;4092303;28;20038;-66
2022/07/27 01:49:17;;;;;;;3.03;1.23;;;17.90;99.90;;;;;;4095269;28;20051;-65
2022/07/27 01:51:18;;;;;;;3.28;1.30;;;17.90;99.90;;;;;;4094033;28;20110;-65
2022/07/27 01:53:20;;;;;;;2.75;1.20;;;17.90;99.90;;;;;;4095096;28;20028;-65
2022/07/27 01:55:21;;;;;;;3.65;1.40;;;17.80;99.90;;;;;;4095919;28;20031;-66
2022/07/27 01:57:22;;;;;;;3.08;1.38;;;17.80;99.90;;;;;;4095975;28;20541;-65
2022/07/27 01:59:22;;;;;;;3.63;1.50;;;17.80;99.90;;;;;;4095112;28;20035;-66
2022/07/27 02:01:23;;;;;;;4.07;1.30;;;17.70;99.90;;;;;;4092676;28;20194;-65
2022/07/27 02:03:23;;;;;;;2.55;1.10;;;17.70;99.90;;;;;;4093050;28;20046;-65
2022/07/27 02:05:24;;;;;;;3.00;1.42;;;17.70;99.90;;;;;;4089532;28;20035;-65
2022/07/27 02:07:25;;;;;;;2.63;1.55;;;17.70;99.90;;;;;;4095623;28;20027;-66
2022/07/27 02:09:25;;;;;;;5.07;1.67;;;17.70;99.90;;;;;;4095149;28;20046;-65
2022/07/27 02:13:48;;;;;;;2.83;1.50;;;17.60;99.90;;;;;;4093887;28;20062;-66
2022/07/27 02:15:48;;;;;;;2.17;1.40;;;17.60;99.90;;;;;;4095578;28;20491;-65
2022/07/27 02:17:49;;;;;;;3.70;1.80;;;17.60;99.90;;;;;;4095803;28;20039;-65
2022/07/27 02:19:49;;;;;;;1.95;1.10;;;17.50;99.90;;;;;;4093277;28;20031;-66
2022/07/27 02:21:50;;;;;;;3.72;1.42;;;17.50;99.90;;;;;;4094712;28;20464;-65
2022/07/27 02:23:50;;;;;;;1.80;1.40;;;17.50;99.90;;;;;;4095978;28;20058;-65
2022/07/27 02:25:51;;;;;;;4.72;1.60;;;17.40;99.90;;;;;;4094526;28;20040;-65
2022/07/27 02:27:52;;;;;;;4.57;1.35;;;17.50;99.90;;;;;;4095707;28;20037;-65
2022/07/27 02:29:52;;;;;;;3.60;1.45;;;17.40;99.90;;;;;;4095182;28;20046;-65
2022/07/27 02:31:53;;;;;;;2.95;1.52;;;17.40;99.90;;;;;;4094937;28;20499;-65
2022/07/27 02:33:53;;;;;;;3.75;1.63;;;17.40;99.90;;;;;;4095107;28;20042;-66
2022/07/27 02:35:54;;;;;;;3.92;1.90;;;17.30;99.90;;;;;;4094150;28;20040;-66
2022/07/27 02:37:55;;;;;;;3.95;1.70;;;17.30;99.90;;;;;;4095774;28;20534;-66
2022/07/27 02:39:55;;;;;;;3.40;1.30;;;17.30;99.90;;;;;;4094984;28;20038;-65
2022/07/27 02:41:56;;;;;;;3.45;1.42;;;17.30;99.90;;;;;;4094438;28;20043;-65
2022/07/27 02:43:57;;;;;;;3.22;1.23;;;17.20;99.90;;;;;;4095670;28;20042;-66
2022/07/27 02:45:57;;;;;;;2.28;1.50;;;17.20;99.90;;;;;;4095251;28;20046;-66
2022/07/27 02:47:58;;;;;;;2.03;1.23;;;17.20;99.90;;;;;;4095568;28;20040;-65
2022/07/27 02:49:59;;;;;;;4.88;1.40;;;17.30;99.90;;;;;;4092797;28;20067;-65
2022/07/27 02:52:00;;;;;;;3.67;1.50;;;17.20;99.90;;;;;;4094220;28;20039;-65
2022/07/27 02:54:01;;;;;;;2.30;1.27;;;17.20;99.90;;;;;;4095852;28;20063;-65
2022/07/27 02:56:02;;;;;;;3.55;1.52;;;17.20;99.90;;;;;;4095208;28;20037;-66
2022/07/27 02:58:02;;;;;;;1.23;1.00;;;17.20;99.90;;;;;;4095827;28;20045;-65
2022/07/27 03:00:05;;;;;;;2.17;1.33;;;17.20;99.90;;;;;;4093856;28;20102;-66
2022/07/27 03:02:06;;;;;;;2.88;1.30;;;17.20;99.90;;;;;;4094234;28;20039;-66
2022/07/27 03:04:06;;;;;;;2.47;1.45;;;17.20;99.90;;;;;;4097234;28;20039;-66
2022/07/27 03:06:08;;;;;;;3.33;1.42;;;17.20;99.90;;;;;;4098004;28;20043;-66
2022/07/27 03:08:08;;;;;;;1.73;1.20;;;17.20;99.90;;;;;;4098696;28;20146;-66
2022/07/27 03:10:09;;;;;;;3.15;1.30;;;17.20;99.90;;;;;;4096599;28;20491;-67
2022/07/27 03:12:10;;;;;;;2.38;1.20;;;17.20;99.90;;;;;;4097866;28;20499;-65
2022/07/27 03:14:10;;;;;;;4.82;1.60;;;17.20;99.90;;;;;;4098125;28;20036;-66
2022/07/27 03:16:11;;;;;;;2.50;1.33;;;17.20;99.90;;;;;;4097699;28;20181;-66
2022/07/27 03:18:11;;;;;;;2.53;1.30;;;17.20;99.90;;;;;;4098038;28;20046;-65
2022/07/27 03:20:12;;;;;;;4.55;1.58;;;17.20;99.90;;;;;;4095177;28;20027;-66
2022/07/27 03:22:13;;;;;;;2.90;1.40;;;17.10;99.90;;;;;;4096953;28;20459;-66
2022/07/27 03:24:13;;;;;;;2.75;1.15;;;17.10;99.90;;;;;;4097898;28;20039;-65
2022/07/27 03:26:15;;;;;;;2.15;1.30;;;17.10;99.90;;;;;;4096490;28;20032;-65
2022/07/27 03:28:16;;;;;;;2.35;1.40;;;17.10;99.90;;;;;;4097547;28;20036;-66
2022/07/27 03:30:17;;;;;;;3.08;1.42;;;17.10;99.90;;;;;;4095313;28;20038;-66
2022/07/27 03:32:17;;;;;;;2.75;1.20;;;17.10;99.90;;;;;;4097265;28;20103;-65
2022/07/27 03:34:18;;;;;;;2.30;1.33;;;17.10;99.90;;;;;;4097430;28;20059;-65
2022/07/27 03:36:18;;;;;;;3.60;1.70;;;17.10;99.90;;;;;;4096763;28;20118;-65
2022/07/27 03:38:19;;;;;;;3.35;1.60;;;17.00;99.90;;;;;;4097694;28;20042;-66
2022/07/27 03:40:20;;;;;;;2.28;1.30;;;17.00;99.90;;;;;;4095755;28;20033;-65
2022/07/27 03:42:20;;;;;;;2.00;1.10;;;17.00;99.90;;;;;;4096948;28;20125;-65
2022/07/27 03:44:21;;;;;;;2.72;1.35;;;17.00;99.90;;;;;;4097226;28;20035;-65
2022/07/27 03:46:21;;;;;;;4.93;1.55;;;17.00;99.90;;;;;;4097191;28;20102;-65
2022/07/27 03:48:22;;;;;;;2.28;1.15;;;17.00;99.90;;;;;;4097441;28;20055;-65
2022/07/27 03:50:23;;;;;;;1.58;1.10;;;16.90;99.90;;;;;;4094667;28;20118;-65
2022/07/27 03:52:23;;;;;;;1.83;1.10;;;16.90;99.90;;;;;;4097136;28;20066;-65
2022/07/27 03:54:24;;;;;;;2.42;1.27;;;16.90;99.90;;;;;;4097331;28;20129;-65
2022/07/27 03:56:25;;;;;;;3.88;1.10;;;16.90;99.90;;;;;;4097003;28;20047;-65
2022/07/27 03:58:25;;;;;;;3.03;1.25;;;16.90;99.90;;;;;;4097269;28;20104;-65
2022/07/27 04:00:26;;;;;;;2.83;1.10;;;16.90;99.70;;;;;;4094851;28;20059;-66
2022/07/27 04:02:26;;;;;;;3.58;1.00;;;16.90;99.70;;;;;;4094151;28;20106;-66
2022/07/27 04:04:27;;;;;;;2.70;1.33;;;16.90;99.90;;;;;;4095480;28;20051;-66
2022/07/27 04:06:28;;;;;;;3.08;1.10;;;16.90;99.90;;;;;;4096359;28;20035;-65
2022/07/27 04:08:28;;;;;;;3.50;1.50;;;16.80;99.90;;;;;;4096965;28;20042;-65
2022/07/27 04:13:26;;;;;;;1.50;1.08;;;16.80;99.90;;;;;;4091780;28;20252;-65
2022/07/27 04:15:26;;;;;;;2.78;1.20;;;16.80;99.90;;;;;;4094435;28;20531;-65
2022/07/27 04:17:27;;;;;;;1.27;1.08;;;16.80;99.90;;;;;;4097253;28;20039;-65
2022/07/27 04:19:28;;;;;;;1.45;0.93;;;16.80;99.90;;;;;;4092333;28;20038;-66
2022/07/27 04:21:28;;;;;;;2.22;1.20;;;16.70;99.90;;;;;;4093531;28;20043;-66
2022/07/27 04:23:29;;;;;;;2.70;1.30;;;16.70;99.90;;;;;;4095648;28;20386;-65
2022/07/27 04:25:29;;;;;;;1.75;1.20;;;16.70;99.90;;;;;;4095919;28;20031;-66
2022/07/27 04:27:30;;;;;;;3.55;1.77;;;16.70;99.90;;;;;;4096926;28;20490;-65
2022/07/27 04:29:31;;;;;;;2.55;1.40;;;16.70;99.90;;;;;;4095472;28;20063;-65
2022/07/27 04:31:32;;;;;;;2.47;1.20;;;16.70;99.90;;;;;;4095016;28;20042;-65
2022/07/27 04:33:32;;;;;;;2.67;1.60;;;16.70;99.90;;;;;;4096629;28;20101;-65
2022/07/27 04:35:33;;;;;;;2.55;1.33;;;16.70;99.90;;;;;;4095800;28;20113;-65
2022/07/27 04:37:33;;;;;;;3.78;1.48;;;16.70;99.90;;;;;;4096710;28;20042;-65
2022/07/27 04:39:34;;;;;;;2.08;1.50;;;16.70;99.90;;;;;;4095373;28;20098;-65
2022/07/27 04:41:35;;;;;;;2.80;1.27;;;16.80;99.90;;;;;;4095993;28;20039;-65
2022/07/27 04:43:35;;;;;;;3.70;1.60;;;16.70;99.90;;;;;;4096757;28;20040;-65
2022/07/27 04:48:34;;;;;;;2.20;1.70;;;16.70;99.90;;;;;;4095745;28;20077;-65
2022/07/27 04:50:46;;;;;;;3.35;1.63;;;16.70;99.90;;;;;;4093517;28;20102;-65
2022/07/27 04:52:47;;;;;;;2.65;1.70;;;16.80;99.90;;;;;;4096956;28;20040;-66
2022/07/27 04:54:54;;;;;;;2.75;1.67;;;16.80;99.90;;;;;;4096308;28;20031;-65
2022/07/27 04:56:54;;;;;;;2.97;1.73;;;16.80;99.90;;;;;;4096355;28;20034;-65
2022/07/27 04:58:55;;;;;;;2.25;1.60;;;16.80;99.90;;;;;;4096222;28;20691;-65
2022/07/27 05:00:55;;;;;;;2.80;1.90;;;16.80;99.90;;;;;;4091768;28;20574;-65
2022/07/27 05:02:56;;;;;;;4.80;1.90;;;16.80;99.90;;;;;;4095914;28;20687;-65
2022/07/27 05:04:58;;;;;;;3.28;1.48;;;16.80;99.90;;;;;;4095999;28;20027;-66
2022/07/27 05:06:59;;;;;;;2.30;1.80;;;16.80;99.90;;;;;;4096162;28;20035;-65
2022/07/27 05:08:59;;;;;;;5.28;1.92;;;16.80;99.90;;;;;;4095745;28;20031;-66
2022/07/27 05:11:00;;;;;;;2.25;1.65;;;16.90;99.90;;;;;;4092774;28;20050;-65
2022/07/27 05:13:01;;;;;;;3.63;2.40;;;16.90;99.90;;;;;;4089337;29;20030;-66
2022/07/27 05:15:01;;;;;;;2.75;1.90;;;16.90;99.90;;;;;;4095455;28;20027;-66
2022/07/27 05:17:04;;;;;;;2.17;1.95;;;16.90;99.90;;;;;;4095250;28;20031;-65
2022/07/27 05:19:05;;;;;;;5.30;2.63;;;16.90;99.90;;;;;;4095373;28;20043;-65
2022/07/27 05:21:07;;;;;;;6.75;2.13;;;16.90;99.90;;;;;;4095130;29;20372;-65
2022/07/27 05:23:07;;;;;;;4.65;2.05;;;16.90;99.90;;;;;;4094025;28;20039;-66
2022/07/27 05:25:09;;;;;;;3.92;2.10;;;17.00;99.90;;;;;;4095675;28;20024;-66
2022/07/27 05:27:10;;;;;;;2.83;2.10;;;17.00;99.90;;;;;;4094633;28;20035;-65
2022/07/27 05:29:11;;;;;;;2.83;2.05;;;16.90;99.90;;;;;;4093347;28;20034;-65
2022/07/27 05:31:12;;;;;;;3.92;1.92;;;17.00;99.90;;;;;;4094419;28;20039;-66
2022/07/27 05:33:12;;;;;;;2.65;1.83;;;17.00;99.90;;;;;;4095033;28;20036;-65
2022/07/27 05:35:13;;;;;;;2.17;1.67;;;17.00;99.90;;;;;;4095348;28;20023;-65
2022/07/27 05:37:13;;;;;;;3.85;2.08;;;17.00;99.90;;;;;;4096341;28;20040;-65
2022/07/27 05:39:14;;;;;;;3.42;2.25;;;17.00;99.90;;;;;;4094713;28;20070;-65
2022/07/27 05:41:20;;;;;;;2.60;1.90;;;17.10;99.90;;;;;;4094442;28;20027;-66
2022/07/27 05:43:21;;;;;;;4.00;2.20;;;17.10;99.90;;;;;;4091892;28;20050;-66
2022/07/27 05:45:21;;;;;;;9.27;2.88;;;17.10;99.90;;;;;;4095479;28;20031;-65
2022/07/27 05:47:22;;;;;;;2.75;2.30;;;17.10;99.90;;;;;;4096262;28;20024;-65
2022/07/27 05:49:23;;;;;;;4.97;1.90;;;17.10;99.90;;;;;;4092294;28;20446;-66
2022/07/27 05:51:23;;;;;;;2.90;1.83;;;17.10;99.90;;;;;;4095556;28;20155;-66
2022/07/27 05:53:24;;;;;;;3.10;1.92;;;17.20;99.90;;;;;;4093163;28;20031;-65
2022/07/27 05:55:25;;;;;;;4.03;1.95;;;17.20;99.90;;;;;;4094616;28;20035;-65
2022/07/27 05:57:26;;;;;;;6.35;2.30;;;17.20;99.90;;;;;;4095135;28;20091;-66
2022/07/27 05:59:27;;;;;;;3.40;2.10;;;17.30;99.90;;;;;;4093640;28;20590;-65
2022/07/27 06:01:27;;;;;;;5.38;2.13;;;17.30;99.90;;;;;;4092490;28;20050;-67
2022/07/27 06:03:28;;;;;;;2.97;1.90;;;17.30;99.90;;;;;;4093627;28;20039;-66
2022/07/27 06:05:28;;;;;;;5.22;2.47;;;17.30;99.90;;;;;;4095232;28;20035;-66
2022/07/27 06:09:48;;;;;;;3.53;2.15;;;17.40;99.90;;;;;;4093292;28;20090;-66
2022/07/27 06:11:49;;;;;;;2.75;1.83;;;17.40;99.90;;;;;;4095310;28;20039;-66
2022/07/27 06:13:51;;;;;;;3.55;1.98;;;17.40;99.90;;;;;;4095784;28;20494;-66
2022/07/27 06:15:52;;;;;;;5.85;2.10;;;17.50;99.90;;;;;;4094575;28;20047;-66
2022/07/27 06:17:53;;;;;;;2.97;1.70;;;17.70;99.90;;;;;;4095703;28;20458;-66
2022/07/27 06:19:53;;;;;;;3.15;1.85;;;17.90;99.90;;;;;;4094013;28;20043;-66
2022/07/27 06:21:54;;;;;;;2.67;1.42;;;18.30;99.90;;;;;;4094219;28;20474;-66
2022/07/27 06:23:54;;;;;;;2.65;1.45;;;18.70;99.90;;;;;;4095585;28;20110;-66
2022/07/27 06:25:56;;;;;;;7.68;2.20;;;19.20;99.90;;;;;;4093099;28;20035;-68
2022/07/27 06:27:56;;;;;;;1.60;1.48;;;19.60;99.90;;;;;;4092869;29;20384;-68
2022/07/27 06:29:57;;;;;;;2.42;1.27;;;20.00;99.90;;;;;;4079153;29;20111;-68
2022/07/27 06:31:58;;;;;;;2.53;1.38;;;20.40;99.90;;;;;;4091037;28;20046;-68
2022/07/27 06:33:58;;;;;;;2.28;1.13;;;20.90;99.90;;;;;;4092534;28;20039;-68
2022/07/27 06:35:59;;;;;;;2.13;1.20;;;21.30;99.90;;;;;;4091682;28;20035;-69
2022/07/27 06:38:01;;;;;;;2.33;1.10;;;21.70;99.90;;;;;;4093654;28;20491;-68
2022/07/27 06:40:03;;;;;;;2.20;1.05;;;22.20;99.90;;;;;;4094049;29;20031;-69
2022/07/27 06:42:04;;;;;;;1.85;0.93;;;22.50;99.90;;;;;;4094556;28;20054;-68
2022/07/27 06:44:05;;;;;;;3.42;1.58;;;22.90;99.60;;;;;;4095596;29;20390;-68
2022/07/27 06:46:06;;;;;;;1.35;0.70;;;23.10;93.90;;;;;;4085767;29;20040;-68
2022/07/27 06:48:07;;;;;;;3.88;1.10;;;23.40;97.00;;;;;;4094217;28;20070;-68
2022/07/27 06:50:08;;;;;;;3.00;1.30;;;23.70;96.00;;;;;;4092366;28;20487;-71
2022/07/27 06:52:08;;;;;;;1.05;0.70;;;24.00;96.50;;;;;;4090590;28;20164;-69
2022/07/27 06:54:10;;;;;;;3.03;0.95;;;24.30;94.90;;;;;;4093935;29;20595;-69
2022/07/27 06:56:10;;;;;;;3.33;1.23;;;24.50;90.30;;;;;;4092556;28;20447;-69
2022/07/27 06:58:11;;;;;;;3.65;0.80;;;24.60;90.80;;;;;;4094478;28;20031;-69
2022/07/27 07:00:13;;;;;;;2.58;0.68;;;24.60;91.50;;;;;;4094878;29;20058;-69
2022/07/27 07:02:14;;;;;;;2.33;0.60;;;24.60;86.00;;;;;;4097844;28;20093;-69
2022/07/27 07:04:14;;;;;;;1.58;0.60;;;24.70;88.30;;;;;;4098086;28;20047;-69
2022/07/27 07:06:15;;;;;;;1.95;0.65;;;24.80;87.20;;;;;;4092526;28;20076;-69
2022/07/27 07:08:16;;;;;;;2.45;0.70;;;24.80;89.90;;;;;;4094407;28;20057;-69
2022/07/27 07:10:17;;;;;;;3.05;0.88;;;24.90;89.50;;;;;;4094093;28;20039;-69
2022/07/27 07:12:18;;;;;;;2.35;0.63;;;24.90;90.30;;;;;;4098456;28;20031;-69
2022/07/27 07:14:18;;;;;;;1.52;0.65;;;24.90;91.50;;;;;;4098352;28;20047;-69
2022/07/27 07:16:19;;;;;;;2.60;1.00;;;25.00;90.00;;;;;;4097594;28;20476;-69
2022/07/27 07:18:20;;;;;;;1.67;0.82;;;25.10;89.80;;;;;;4097195;28;20482;-69
2022/07/27 07:20:21;;;;;;;3.40;0.90;;;25.20;88.20;;;;;;4095734;28;20219;-69
2022/07/27 07:22:22;;;;;;;3.65;0.73;;;25.10;84.20;;;;;;4097508;28;20042;-69
2022/07/27 07:24:22;;;;;;;1.27;0.60;;;25.00;84.60;;;;;;4097495;28;20039;-69
2022/07/27 07:26:23;;;;;;;1.98;0.50;;;25.10;90.50;;;;;;4097107;28;20039;-69
2022/07/27 07:28:24;;;;;;;1.52;0.50;;;25.00;82.70;;;;;;4097867;28;20044;-69
2022/07/27 07:42:11;;;;;;;2.28;0.50;;;24.20;84.10;;;;;;4092615;28;20069;-68
2022/07/27 07:44:12;;;;;;;2.28;0.80;;;23.90;83.70;;;;;;4096384;28;20065;-68
2022/07/27 07:46:12;;;;;;;0.98;0.57;;;23.90;83.70;;;;;;4094081;28;20027;-69
2022/07/27 07:48:13;;;;;;;1.58;0.63;;;23.80;84.90;;;;;;4098207;28;20413;-69
2022/07/27 07:50:14;;;;;;;1.73;0.70;;;23.50;84.50;;;;;;4096466;28;20043;-69
2022/07/27 07:52:15;;;;;;;2.33;0.60;;;23.50;85.50;;;;;;4096562;28;20122;-69
2022/07/27 07:54:16;;;;;;;0.70;0.30;;;23.50;85.10;;;;;;4097459;28;20110;-69
2022/07/27 07:56:17;;;;;;;0.73;0.40;;;23.60;85.40;;;;;;4094646;28;20074;-69
2022/07/27 07:58:18;;;;;;;2.33;0.65;;;23.70;90.80;;;;;;4095326;28;20027;-68
2022/07/27 08:00:19;;;;;;;0.75;0.30;;;23.70;88.20;;;;;;4092935;28;20042;-69
2022/07/27 08:05:36;;;;;;;1.75;0.70;;;23.70;89.60;;;;;;4095100;28;20338;-68
2022/07/27 08:07:38;;;;;;;1.55;0.60;;;23.60;90.70;;;;;;4094086;28;20059;-68
2022/07/27 08:09:39;;;;;;;2.17;0.60;;;23.60;87.60;;;;;;4094991;28;20404;-69
2022/07/27 08:11:39;;;;;;;1.67;0.75;;;23.50;88.50;;;;;;4093161;28;20035;-69
2022/07/27 08:13:40;;;;;;;1.40;0.55;;;23.50;91.00;;;;;;4096943;28;20086;-68
2022/07/27 08:15:41;;;;;;;1.17;0.73;;;23.50;90.60;;;;;;4092000;28;20520;-68
2022/07/27 08:17:43;;;;;;;2.28;0.70;;;23.30;87.50;;;;;;4089531;28;20040;-68
2022/07/27 08:19:43;;;;;;;3.53;0.80;;;23.20;88.10;;;;;;4098109;28;20111;-69
2022/07/27 08:21:44;;;;;;;3.25;0.50;;;23.20;89.70;;;;;;4096845;28;20058;-68
2022/07/27 08:23:44;;;;;;;1.88;0.47;;;23.40;91.30;;;;;;4094302;28;20043;-68
2022/07/27 08:25:46;;;;;;;1.38;0.52;;;23.30;86.40;;;;;;4092832;28;20384;-68
2022/07/27 08:27:46;;;;;;;3.42;1.33;;;23.40;90.20;;;;;;4095778;28;20042;-68
2022/07/27 08:29:47;;;;;;;1.98;0.82;;;23.10;85.40;;;;;;4097011;28;20035;-69
2022/07/27 08:31:47;;;;;;;3.05;0.80;;;22.90;86.20;;;;;;4097301;28;20042;-68
2022/07/27 08:33:48;;;;;;;2.30;0.70;;;22.70;91.70;;;;;;4098078;28;20082;-68
2022/07/27 08:35:49;;;;;;;2.42;0.80;;;22.80;88.10;;;;;;4095073;28;20039;-68
2022/07/27 08:37:50;;;;;;;2.45;0.82;;;23.00;91.00;;;;;;4098117;28;20043;-68
2022/07/27 08:39:51;;;;;;;2.30;0.88;;;23.10;90.60;;;;;;4096277;28;20031;-68
2022/07/27 08:41:54;;;;;;;1.55;0.60;;;23.30;90.80;;;;;;4093582;28;20155;-69
2022/07/27 08:43:56;;;;;;;1.58;0.70;;;23.30;88.30;;;;;;4097245;28;20399;-68
2022/07/27 08:45:58;;;;;;;;;;;23.40;88.10;;;;;;4095417;28;20031;-68
2022/07/27 08:47:59;;;;;;;1.08;0.40;;;23.50;87.10;;;;;;4094755;28;19910;-68
2022/07/27 08:49:59;;;;;;;2.53;0.88;;;23.50;88.30;;;;;;4093883;28;20170;-68
2022/07/27 08:57:53;;;;;;;5.45;0.65;;;23.20;90.50;;;;;;4097281;29;20046;-68
2022/07/27 08:59:55;;;;;;;1.88;0.90;;;23.00;91.90;;;;;;4093455;28;20043;-68
2022/07/27 09:01:56;;;;;;;2.25;0.90;;;23.00;91.20;;;;;;4084452;29;20084;-68
2022/07/27 09:03:56;;;;;;;1.25;0.60;;;22.90;91.50;;;;;;4092243;28;20043;-68
2022/07/27 09:05:57;;;;;;;3.50;0.60;;;22.90;91.80;;;;;;4089179;28;20391;-68
2022/07/27 09:08:15;;;;;;;2.33;0.65;;;22.70;90.90;;;;;;4097153;28;20027;-68
2022/07/27 09:10:33;;;;;;;1.58;0.60;;;22.70;92.00;;;;;;4091038;28;20031;-68
2022/07/27 09:12:34;;;;;;;1.65;0.55;;;22.70;91.50;;;;;;4091737;28;20119;-68
2022/07/27 09:14:36;;;;;;;1.20;0.50;;;22.70;90.90;;;;;;4095497;28;20094;-68
2022/07/27 09:16:38;;;;;;;1.92;0.68;;;22.70;91.30;;;;;;4092767;28;20031;-68
2022/07/27 09:18:38;;;;;;;2.80;0.73;;;22.70;88.70;;;;;;4097312;28;20041;-68
2022/07/27 09:20:39;;;;;;;0.65;0.50;;;22.80;91.30;;;;;;4095583;28;20039;-68
2022/07/27 09:22:43;;;;;;;1.98;0.40;;;22.80;87.50;;;;;;4097514;28;20063;-69
2022/07/27 09:25:01;;;;;;;1.63;0.55;;;22.90;85.50;;;;;;4097351;28;20035;-68
2022/07/27 09:27:04;;;;;;;0.95;0.45;;;23.00;85.60;;;;;;4095624;29;20122;-68
2022/07/27 09:29:09;;;;;;;1.15;0.47;;;23.10;84.70;;;;;;4096262;28;20035;-68
2022/07/27 09:31:12;;;;;;;0.82;0.40;;;23.20;81.20;;;;;;4090485;28;20043;-70
2022/07/27 09:33:14;;;;;;;1.67;0.50;;;22.90;81.00;;;;;;4084383;29;20043;-68
2022/07/27 09:35:22;;;;;;;0.75;0.40;;;23.00;85.90;;;;;;4096714;28;20047;-68
2022/07/27 09:37:27;;;;;;;1.77;0.40;;;23.20;84.70;;;;;;4093974;28;20031;-68
2022/07/27 09:39:28;;;;;;;1.90;0.60;;;23.20;82.30;;;;;;4097207;28;20428;-68
2022/07/27 09:41:50;;;;;;;0.90;0.30;;;23.30;79.80;;;;;;4095006;28;20034;-68
2022/07/27 09:43:53;;;;;;;1.02;0.32;;;23.40;84.80;;;;;;4096963;28;20027;-68
2022/07/27 09:45:54;;;;;;;2.78;0.80;;;23.40;80.40;;;;;;4094050;28;20032;-68
2022/07/27 09:48:15;;;;;;;0.63;0.43;;;23.50;83.80;;;;;;4093301;28;20035;-68
2022/07/27 09:50:18;;;;;;;2.17;0.40;;;23.50;81.60;;;;;;4095911;28;20031;-68
2022/07/27 09:52:28;;;;;;;1.63;0.40;;;23.50;80.20;;;;;;4096692;28;20031;-68
2022/07/27 09:54:45;;;;;;;1.23;0.40;;;23.50;79.50;;;;;;4097195;28;20027;-68
2022/07/27 09:57:00;;;;;;;3.20;0.52;;;23.50;79.40;;;;;;4089658;28;20036;-68
2022/07/27 09:59:02;;;;;;;1.90;0.40;;;23.50;82.80;;;;;;4091406;29;20056;-69
2022/07/27 10:01:03;;;;;;;2.03;0.32;;;23.50;83.30;;;;;;4093539;28;20383;-69
2022/07/27 10:03:04;;;;;;;1.65;0.65;;;23.60;81.80;;;;;;4094562;28;20130;-68
2022/07/27 10:05:06;;;;;;;1.00;0.30;;;23.60;82.90;;;;;;4095597;28;20062;-70
2022/07/27 10:07:07;;;;;;;1.23;0.50;;;23.50;74.20;;;;;;4095623;28;20031;-68
2022/07/27 10:09:07;;;;;;;1.75;0.75;;;23.50;85.40;;;;;;4095450;28;20555;-68
2022/07/27 10:11:08;;;;;;;2.17;0.80;;;23.50;81.40;;;;;;4092404;28;20059;-69
2022/07/27 10:13:09;;;;;;;1.38;0.47;;;23.40;77.90;;;;;;4082985;29;20032;-68
2022/07/27 10:15:11;;;;;;;1.02;0.50;;;23.20;77.50;;;;;;4092907;28;20042;-69
2022/07/27 10:17:12;;;;;;;0.38;0.30;;;23.10;87.90;;;;;;4097701;28;20032;-68
2022/07/27 10:19:16;;;;;;;1.00;0.40;;;23.00;79.10;;;;;;4099055;28;20027;-69
2022/07/27 10:21:16;;;;;;;1.30;0.55;;;22.90;76.60;;;;;;4096731;28;20510;-68
2022/07/27 10:23:26;;;;;;;1.27;0.50;;;22.90;86.30;;;;;;4100014;28;20106;-68
2022/07/27 10:25:29;;;;;;;1.15;0.50;;;23.00;85.80;;;;;;4082841;28;20032;-68
2022/07/27 10:27:29;;;;;;;0.80;0.50;;;23.20;86.30;;;;;;4099248;28;20020;-69
2022/07/27 10:29:30;;;;;;;1.38;0.50;;;23.10;76.00;;;;;;4099235;28;20046;-68
2022/07/27 10:31:39;;;;;;;2.15;0.88;;;23.10;76.70;;;;;;4098168;28;20040;-69
2022/07/27 10:33:42;;;;;;;2.20;0.70;;;23.20;81.90;;;;;;4084269;29;20032;-68
2022/07/27 10:35:42;;;;;;;0.95;0.60;;;23.20;84.30;;;;;;4094242;28;20471;-69
2022/07/27 10:38:03;;;;;;;1.38;0.57;;;23.20;84.40;;;;;;4098887;28;20066;-68
2022/07/27 10:42:29;;;;;;;2.60;0.88;;;23.30;85.00;;;;;;4099346;28;20390;-68
2022/07/27 10:44:30;;;;;;;4.47;0.80;;;23.30;84.10;;;;;;4099935;28;20042;-68
2022/07/27 10:46:31;;;;;;;0.80;0.40;;;23.30;86.70;;;;;;4097918;28;20423;-68
2022/07/27 10:48:39;;;;;;;1.63;0.50;;;23.20;77.30;;;;;;4098434;28;20035;-70
2022/07/27 10:50:46;;;;;;;2.72;0.73;;;23.30;82.00;;;;;;4099358;28;20027;-69
2022/07/27 10:52:52;;;;;;;0.65;0.30;;;23.30;81.40;;;;;;4099240;28;20035;-68
2022/07/27 10:54:53;;;;;;;1.95;0.63;;;23.30;84.10;;;;;;4098336;28;20032;-68
2022/07/27 10:56:55;;;;;;;1.15;0.45;;;23.30;79.60;;;;;;4098074;28;20102;-68
2022/07/27 10:58:55;;;;;;;1.40;0.50;;;23.30;75.50;;;;;;4094976;28;20035;-68
2022/07/27 11:01:02;;;;;;;1.10;0.40;;;23.10;71.20;;;;;;4094553;28;20035;-68
2022/07/27 11:03:04;;;;;;;0.68;0.40;;;23.10;78.80;;;;;;4095320;28;20047;-68
2022/07/27 11:05:06;;;;;;;1.25;0.52;;;23.00;71.00;;;;;;4099213;28;20031;-68
2022/07/27 11:07:06;;;;;;;0.65;0.40;;;22.60;71.70;;;;;;4098700;28;20043;-68
2022/07/27 11:09:07;;;;;;;1.17;0.50;;;22.50;72.50;;;;;;4099671;28;20085;-68
2022/07/27 11:11:12;;;;;;;0.65;0.40;;;22.30;74.20;;;;;;4098437;28;20571;-68